Georgetown, TX

3:30 PM CST on February 28, 2015 (GMT -0600)
Golden Oaks | Change Station
CLOSE
Current Station
Personal Weather Station
Location: Georgetown, TX
Elevation: 748 ft
Nearby Weather Stations

Elev 748 ft 30.67 °N, 97.68 °W | Updated 37 seconds ago

Fog
Fog
33.8 °F
Feels Like 34 °F
N
1.6
Wind Variable Wind from NW
Gusts 4.0 mph

Today
High -- | Low -- °F
--% Chance of Precip.
Yesterday
High -- | Low -- °F
Precip. -- in
6:58 AM 6:28 PM
Waxing Gibbous, 80% visible
Pressure 30.26 in
Visibility 2.5 miles
Clouds Overcast 600 ft
Windchill 34 °F
Dew Point 33 °F
Humidity 96%
Rainfall 0.05 in
Snow Depth Not available.
UV 2 out of 12
Pollen 8.30 out of 12
Air Quality Not available.
Flu Activity Not available.
METAR KGTU 282050Z 36006KT 2 1/2SM BR OVC006 01/M01 A3026

More Conditions Fewer Conditions

Pressure 30.26 in
Visibility 2.5 miles
Clouds Overcast 600 ft
Windchill 34 °F
Dew Point 33 °F
Humidity 96%
Rainfall 0.05 in
Snow Depth Not available.
UV 2 out of 12
Pollen 8.30 out of 12
Air Quality Not available.
Flu Activity Not available.
METAR KGTU 282050Z 36006KT 2 1/2SM BR OVC006 01/M01 A3026

More Conditions Fewer Conditions

Nowcast | as of 1:59 PM CST on February 28, 2015

Through 4 PM...patchy light rain and drizzle will continue. Rainfall will amount from a trace to a few hundredths of an inch.

×

10-Day Weather Forecast

Almanac

Astronomy

Feb. 28, 2015 Rise Set
Actual Time
Civil Twilight
Nautical Twilight
Astronomical Twilight
Moon
Length of Visible Light
Length of Day
Tomorrow will be .
, % of the Moon is Illuminated

Today's Extremes

State Highs State Lows

Community

WunderPhotos

Upload Photos

1,801,158 photos uploaded!

WunderBlogs® & News

Nearby

Air Quality

  Air Quality AQ Index Pollutant
Not available.

Snow Depth

Station Depth Elevation

Earthquake Activity

City Distance Mag. Time & Date
Minimum magnitude displayed is 2.5.

Coastal Water Temperatures

Place Temperature

Nearby Weather Stations